Time;durP1;ratioP1;P1;durP2;ratioP2;P2;SDS_P1;SDS_P2;PMS_P1;PMS_P2;Temp;Humidity;BMP_temperature;BMP_pressure;BME280_temperature;BME280_humidity;BME280_pressure;Samples;Min_cycle;Max_cycle;Signal;HPM_P1;HPM_P2
2022/11/12 00:00:26;;;;;;;30.80;12.48;;;;;;;2.96;100.00;97435.53;1034891;28;20029;-70
2022/11/12 00:00:58;;;;;;;26.10;12.40;;;;;;;2.95;100.00;97442.50;1030833;28;20050;-69
2022/11/12 00:01:28;;;;;;;48.17;14.52;;;;;;;2.93;100.00;97439.28;1023073;29;20150;-70
2022/11/12 00:01:58;;;;;;;30.50;11.70;;;;;;;2.94;100.00;97437.47;1024238;28;20270;-68
2022/11/12 00:02:29;;;;;;;28.58;12.65;;;;;;;2.92;100.00;97440.25;1026453;28;20034;-71
2022/11/12 00:02:59;;;;;;;29.85;13.15;;;;;;;2.92;100.00;97444.59;1026838;28;20023;-69
2022/11/12 00:03:30;;;;;;;31.10;12.98;;;;;;;2.84;100.00;97441.09;1023063;28;20031;-67
2022/11/12 00:04:00;;;;;;;39.13;12.48;;;;;;;2.87;100.00;97442.53;1030879;28;20023;-68
2022/11/12 00:04:31;;;;;;;28.38;11.93;;;;;;;2.80;100.00;97447.59;1031074;28;20018;-69
2022/11/12 00:05:01;;;;;;;24.92;11.70;;;;;;;2.78;100.00;97446.16;1022841;28;20024;-70
2022/11/12 00:05:32;;;;;;;30.20;11.85;;;;;;;2.73;100.00;97435.50;1029520;28;20030;-69
2022/11/12 00:06:02;;;;;;;33.60;11.85;;;;;;;2.74;100.00;97447.47;1022879;29;20038;-69
2022/11/12 00:06:32;;;;;;;28.17;12.50;;;;;;;2.71;100.00;97445.22;1023172;28;20271;-71
2022/11/12 00:07:03;;;;;;;25.85;11.90;;;;;;;2.68;100.00;97445.56;1026697;28;20027;-68
2022/11/12 00:07:33;;;;;;;34.10;13.07;;;;;;;2.72;100.00;97446.84;1026892;28;20035;-69
2022/11/12 00:08:04;;;;;;;49.70;14.10;;;;;;;2.73;100.00;97444.09;1035065;28;20165;-69
2022/11/12 00:08:35;;;;;;;29.70;12.73;;;;;;;2.71;100.00;97443.44;1035222;28;20415;-69
2022/11/12 00:09:05;;;;;;;23.60;11.43;;;;;;;2.72;100.00;97449.44;1030881;28;20494;-70
2022/11/12 00:09:36;;;;;;;31.33;12.82;;;;;;;2.72;100.00;97444.25;1030756;28;20080;-68
2022/11/12 00:10:06;;;;;;;30.73;13.07;;;;;;;2.67;100.00;97447.34;1030911;28;20504;-69
2022/11/12 00:10:37;;;;;;;35.42;13.85;;;;;;;2.71;100.00;97448.63;1025302;28;20590;-70
2022/11/12 00:11:07;;;;;;;36.38;12.93;;;;;;;2.67;100.00;97449.13;1027029;28;20023;-68
2022/11/12 00:11:38;;;;;;;34.67;13.18;;;;;;;2.63;100.00;97448.69;1026657;28;20090;-68
2022/11/12 00:12:08;;;;;;;27.33;12.27;;;;;;;2.66;100.00;97447.53;1031830;28;20034;-68
2022/11/12 00:12:38;;;;;;;30.60;12.98;;;;;;;2.65;100.00;97448.50;1026207;28;20030;-68
2022/11/12 00:13:09;;;;;;;33.20;12.73;;;;;;;2.67;100.00;97451.72;1030932;28;20022;-69
2022/11/12 00:13:39;;;;;;;42.03;14.57;;;;;;;2.65;100.00;97453.66;1022858;28;20024;-70
2022/11/12 00:14:10;;;;;;;58.65;15.80;;;;;;;2.59;100.00;97439.63;1034607;28;20515;-70
2022/11/12 00:14:40;;;;;;;42.90;12.88;;;;;;;2.65;100.00;97438.97;1030942;28;20034;-70
2022/11/12 00:15:11;;;;;;;33.92;12.60;;;;;;;2.61;100.00;97427.28;1031083;28;20191;-69
2022/11/12 00:15:41;;;;;;;25.17;11.25;;;;;;;2.71;100.00;97442.63;1034695;28;20021;-68
2022/11/12 00:16:12;;;;;;;21.90;12.18;;;;;;;2.69;100.00;97431.66;1031147;28;20046;-69
2022/11/12 00:16:42;;;;;;;46.22;15.05;;;;;;;2.73;100.00;97438.09;1030931;28;20026;-70
2022/11/12 00:17:13;;;;;;;38.47;14.90;;;;;;;2.79;100.00;97445.19;1030719;28;20145;-69
2022/11/12 00:17:43;;;;;;;55.55;15.70;;;;;;;2.69;100.00;97431.66;1026950;28;20121;-70
2022/11/12 00:18:14;;;;;;;39.85;13.32;;;;;;;2.75;100.00;97449.09;1030692;28;20030;-66
2022/11/12 00:18:44;;;;;;;36.97;13.23;;;;;;;2.73;100.00;97440.69;1034127;28;20026;-70
2022/11/12 00:19:14;;;;;;;31.30;12.05;;;;;;;2.71;100.00;97448.63;1037391;28;20052;-71
2022/11/12 00:19:45;;;;;;;25.63;12.60;;;;;;;2.71;100.00;97442.63;1034704;28;20033;-69
2022/11/12 00:20:15;;;;;;;28.77;11.85;;;;;;;2.67;100.00;97438.78;1035997;28;20029;-68
2022/11/12 00:20:46;;;;;;;33.75;12.88;;;;;;;2.68;100.00;97437.78;1036712;28;20030;-69
2022/11/12 00:21:16;;;;;;;32.38;12.55;;;;;;;2.63;100.00;97440.91;1035861;28;20033;-68
2022/11/12 00:21:47;;;;;;;37.35;12.60;;;;;;;2.59;100.00;97431.84;1034643;28;20030;-70
2022/11/12 00:22:17;;;;;;;31.23;13.15;;;;;;;2.53;100.00;97433.34;1029899;28;20038;-69
2022/11/12 00:22:48;;;;;;;51.53;14.48;;;;;;;2.58;100.00;97432.81;1026773;28;20026;-69
2022/11/12 00:23:18;;;;;;;34.58;12.00;;;;;;;2.54;100.00;97434.94;1025473;28;20046;-71
2022/11/12 00:23:48;;;;;;;52.00;12.15;;;;;;;2.60;100.00;97436.06;1026882;28;20031;-68
2022/11/12 00:24:19;;;;;;;45.10;12.95;;;;;;;2.51;100.00;97426.69;1031443;28;20026;-69
2022/11/12 00:24:49;;;;;;;45.88;12.13;;;;;;;2.52;100.00;97426.53;1034903;28;20080;-69
2022/11/12 00:25:20;;;;;;;36.60;12.57;;;;;;;2.54;100.00;97427.16;1024950;28;20060;-69
2022/11/12 00:25:58;;;;;;;44.22;12.95;;;;;;;2.49;100.00;97429.47;1026735;28;20011;-69
2022/11/12 00:26:28;;;;;;;41.03;11.57;;;;;;;2.52;100.00;97423.97;1027921;28;20299;-69
2022/11/12 00:26:59;;;;;;;43.33;13.90;;;;;;;2.57;100.00;97426.03;1027650;28;20274;-69
2022/11/12 00:27:32;;;;;;;39.70;13.18;;;;;;;2.60;100.00;97423.91;1028155;28;20023;-70
2022/11/12 00:28:04;;;;;;;43.00;14.13;;;;;;;2.58;100.00;97428.47;1026957;28;20589;-69
2022/11/12 00:28:34;;;;;;;35.15;12.25;;;;;;;2.57;100.00;97431.22;1029911;28;20277;-67
2022/11/12 00:29:05;;;;;;;48.05;13.00;;;;;;;2.49;100.00;97424.28;1034430;28;20324;-71
2022/11/12 00:29:35;;;;;;;33.60;12.73;;;;;;;2.57;100.00;97434.59;1029414;28;20060;-72
2022/11/12 00:30:06;;;;;;;32.80;11.98;;;;;;;2.48;100.00;97420.09;1030732;28;20030;-70
2022/11/12 00:30:37;;;;;;;37.65;13.52;;;;;;;2.58;100.00;97433.66;1026633;28;20033;-70
2022/11/12 00:31:09;;;;;;;37.10;12.95;;;;;;;2.50;100.00;97415.53;1026617;28;20037;-71
2022/11/12 00:31:39;;;;;;;37.67;14.27;;;;;;;2.63;100.00;97433.13;1026680;28;20278;-69
2022/11/12 00:32:10;;;;;;;47.72;13.55;;;;;;;2.62;100.00;97438.50;1025690;28;20276;-69
2022/11/12 00:32:40;;;;;;;52.22;13.13;;;;;;;2.57;100.00;97426.81;1026077;28;20027;-69
2022/11/12 00:33:11;;;;;;;41.97;12.68;;;;;;;2.58;100.00;97433.66;1026741;28;20042;-71
2022/11/12 00:33:41;;;;;;;40.03;12.48;;;;;;;2.54;100.00;97427.16;1026565;28;20031;-71
2022/11/12 00:34:12;;;;;;;36.67;12.50;;;;;;;2.56;100.00;97433.00;1026614;28;20042;-70
2022/11/12 00:34:42;;;;;;;41.28;12.35;;;;;;;2.61;100.00;97435.06;1026573;28;20037;-71
2022/11/12 00:35:13;;;;;;;45.10;14.00;;;;;;;2.60;100.00;97426.50;1031018;28;20547;-70
2022/11/12 00:35:43;;;;;;;36.47;12.85;;;;;;;2.61;100.00;97432.47;1038419;28;20513;-70
2022/11/12 00:36:13;;;;;;;26.17;12.73;;;;;;;2.59;100.00;97437.03;1042721;28;20543;-69
2022/11/12 00:36:44;;;;;;;38.38;12.90;;;;;;;2.59;100.00;97429.25;1036921;28;20538;-70
2022/11/12 00:37:15;;;;;;;53.30;14.13;;;;;;;2.57;100.00;97426.81;1039692;28;20025;-70
2022/11/12 00:37:46;;;;;;;48.42;15.95;;;;;;;2.63;100.00;97429.72;1041199;28;20098;-71
2022/11/12 00:38:16;;;;;;;41.20;14.10;;;;;;;2.64;100.00;97426.16;1035572;28;20272;-68
2022/11/12 00:38:46;;;;;;;37.58;13.60;;;;;;;2.65;100.00;97426.00;1033464;28;20021;-71
2022/11/12 00:39:17;;;;;;;68.03;17.38;;;;;;;2.62;100.00;97417.75;1036117;28;20028;-69
2022/11/12 00:39:48;;;;;;;32.95;14.00;;;;;;;2.68;100.00;97422.25;1030704;28;20026;-72
2022/11/12 00:40:18;;;;;;;44.00;14.45;;;;;;;2.64;100.00;97421.78;1025624;28;20046;-70
2022/11/12 00:40:49;;;;;;;39.10;12.88;;;;;;;2.65;100.00;97422.56;1030656;28;20034;-69
2022/11/12 00:41:19;;;;;;;37.55;12.30;;;;;;;2.64;100.00;97419.19;1024190;28;20026;-71
2022/11/12 00:41:50;;;;;;;32.58;12.77;;;;;;;2.65;100.00;97420.81;1020141;29;20035;-70
2022/11/12 00:42:20;;;;;;;28.15;12.15;;;;;;;2.61;100.00;97411.75;1024347;28;20026;-72
2022/11/12 00:42:51;;;;;;;45.05;12.45;;;;;;;2.65;100.00;97422.56;1020224;28;20537;-71
2022/11/12 00:43:23;;;;;;;43.13;13.93;;;;;;;2.64;100.00;97426.16;1022879;28;20035;-69
2022/11/12 00:43:54;;;;;;;50.22;13.77;;;;;;;2.62;100.00;97417.75;1029655;28;20278;-70
2022/11/12 00:44:24;;;;;;;45.35;14.18;;;;;;;2.66;100.00;97419.03;1034644;28;20260;-71
2022/11/12 00:44:55;;;;;;;32.30;12.05;;;;;;;2.64;100.00;97418.38;1038498;28;20088;-70
2022/11/12 00:45:25;;;;;;;46.58;13.07;;;;;;;2.65;100.00;97419.97;1033945;28;20022;-71
2022/11/12 00:45:55;;;;;;;70.20;14.43;;;;;;;2.66;100.00;97424.22;1034660;28;20029;-70
2022/11/12 00:46:26;;;;;;;45.13;14.32;;;;;;;2.64;100.00;97410.59;1034030;28;20034;-70
2022/11/12 00:46:56;;;;;;;45.33;14.35;;;;;;;2.70;100.00;97420.28;1034370;28;20029;-70
2022/11/12 00:47:27;;;;;;;66.07;17.75;;;;;;;2.70;100.00;97420.28;1038781;28;20021;-69
2022/11/12 00:47:57;;;;;;;55.30;15.80;;;;;;;2.72;100.00;97419.16;1034637;28;20029;-71
2022/11/12 00:48:28;;;;;;;45.85;15.32;;;;;;;2.75;100.00;97420.56;1030707;28;20027;-72
2022/11/12 00:48:59;;;;;;;39.47;13.52;;;;;;;2.75;100.00;97424.00;1034401;28;20029;-72
2022/11/12 00:49:29;;;;;;;36.13;14.02;;;;;;;2.79;100.00;97429.66;1028852;28;20061;-71
2022/11/12 00:49:59;;;;;;;39.55;13.18;;;;;;;2.84;100.00;97416.97;1030446;28;20304;-69
2022/11/12 00:50:30;;;;;;;50.38;15.50;;;;;;;2.84;100.00;97427.31;1029841;28;20053;-71
2022/11/12 00:51:02;;;;;;;40.22;12.95;;;;;;;2.82;100.00;97418.94;1027678;28;20026;-69
2022/11/12 00:51:33;;;;;;;50.60;15.15;;;;;;;2.83;100.00;97423.13;1027015;28;20500;-71
2022/11/12 00:52:03;;;;;;;59.13;14.88;;;;;;;2.84;100.00;97430.72;1018977;29;20271;-70
2022/11/12 00:52:34;;;;;;;60.58;14.85;;;;;;;2.84;100.00;97422.94;1023078;28;20302;-71
2022/11/12 00:53:04;;;;;;;40.95;12.18;;;;;;;2.87;100.00;97426.19;1018838;29;20092;-70
2022/11/12 00:53:34;;;;;;;34.33;12.18;;;;;;;2.87;100.00;97421.00;1018857;28;20063;-71
2022/11/12 00:54:05;;;;;;;37.78;12.68;;;;;;;2.83;100.00;97416.16;1031620;28;20057;-68
2022/11/12 00:54:35;;;;;;;41.55;13.80;;;;;;;2.87;100.00;97419.22;1026969;28;20030;-70
2022/11/12 00:55:06;;;;;;;38.92;12.65;;;;;;;2.86;100.00;97427.97;1023355;28;20120;-71
2022/11/12 00:55:37;;;;;;;26.08;12.13;;;;;;;2.86;100.00;97434.94;1026772;28;20077;-70
2022/11/12 00:56:07;;;;;;;33.65;12.32;;;;;;;2.87;100.00;97426.19;1022683;28;20042;-69
2022/11/12 00:56:37;;;;;;;37.75;15.45;;;;;;;2.83;100.00;97429.13;1026838;28;20548;-71
2022/11/12 00:57:08;;;;;;;42.72;14.95;;;;;;;2.83;100.00;97429.13;1034549;28;20029;-70
2022/11/12 00:57:38;;;;;;;37.03;14.68;;;;;;;2.80;100.00;97420.88;1032875;28;20022;-71
2022/11/12 00:58:09;;;;;;;37.15;15.07;;;;;;;2.85;100.00;97421.19;1034872;28;20033;-69
2022/11/12 00:58:39;;;;;;;39.28;15.63;;;;;;;2.90;100.00;97431.84;1026494;28;20035;-70
2022/11/12 00:59:10;;;;;;;55.15;17.20;;;;;;;2.88;100.00;97433.78;1026626;28;20026;-71
2022/11/12 00:59:40;;;;;;;51.28;16.13;;;;;;;2.90;100.00;97436.22;1030718;28;20022;-70
2022/11/12 01:00:15;;;;;;;42.45;14.70;;;;;;;2.92;100.00;97429.88;1034993;28;20029;-70
2022/11/12 01:00:45;;;;;;;46.97;16.88;;;;;;;2.90;100.00;97433.63;1042934;28;20043;-71
2022/11/12 01:01:16;;;;;;;39.75;14.55;;;;;;;2.89;100.00;97430.22;1042819;28;20268;-70
2022/11/12 01:01:46;;;;;;;52.15;17.08;;;;;;;2.89;100.00;97430.22;1042953;28;20092;-71
2022/11/12 01:02:17;;;;;;;50.53;17.23;;;;;;;2.87;100.00;97434.75;1042223;28;20033;-70
2022/11/12 01:02:47;;;;;;;60.63;16.20;;;;;;;2.90;100.00;97436.22;1038626;28;20426;-71
2022/11/12 01:03:17;;;;;;;60.50;16.02;;;;;;;2.85;100.00;97434.16;1038785;28;20044;-70
2022/11/12 01:03:48;;;;;;;38.67;13.25;;;;;;;2.86;100.00;97433.16;1033516;28;20037;-71
2022/11/12 01:04:18;;;;;;;31.55;12.43;;;;;;;2.90;100.00;97431.84;1031776;28;20039;-70
2022/11/12 01:04:49;;;;;;;41.20;12.85;;;;;;;2.86;100.00;97438.34;1034841;28;20033;-70
2022/11/12 01:05:19;;;;;;;62.35;14.88;;;;;;;2.85;100.00;97434.16;1030589;28;20038;-71
2022/11/12 01:05:50;;;;;;;44.63;13.50;;;;;;;2.87;100.00;97432.16;1030625;28;20033;-71
2022/11/12 01:06:21;;;;;;;65.28;14.55;;;;;;;2.78;100.00;97422.81;1030547;28;20030;-71
2022/11/12 01:06:52;;;;;;;45.13;13.40;;;;;;;2.84;100.00;97435.09;1030777;28;20096;-69
2022/11/12 01:07:22;;;;;;;48.08;16.08;;;;;;;2.85;100.00;97436.75;1030883;28;20269;-72
2022/11/12 01:07:52;;;;;;;63.22;15.15;;;;;;;2.80;100.00;97433.84;1037023;28;20456;-72
2022/11/12 01:08:23;;;;;;;61.05;14.52;;;;;;;2.82;100.00;97434.50;1034752;28;20038;-68
2022/11/12 01:08:54;;;;;;;41.63;12.95;;;;;;;2.80;100.00;97433.84;1038696;28;20029;-69
2022/11/12 01:09:24;;;;;;;38.60;12.35;;;;;;;2.80;100.00;97431.25;1042738;28;20037;-69
2022/11/12 01:09:54;;;;;;;68.43;16.90;;;;;;;2.81;100.00;97438.03;1042768;28;20107;-70
2022/11/12 01:10:25;;;;;;;37.03;12.98;;;;;;;2.82;100.00;97434.50;1029503;28;20578;-71
2022/11/12 01:10:55;;;;;;;32.00;12.77;;;;;;;2.88;100.00;97438.97;1026609;28;20382;-69
2022/11/12 01:11:27;;;;;;;38.72;12.05;;;;;;;2.81;100.00;97427.66;1022245;29;20027;-69
2022/11/12 01:11:57;;;;;;;28.02;11.85;;;;;;;2.88;100.00;97433.78;1022749;28;20058;-68
2022/11/12 01:12:29;;;;;;;35.35;12.73;;;;;;;2.80;100.00;97423.47;1033618;28;20283;-68
2022/11/12 01:13:00;;;;;;;38.83;12.40;;;;;;;2.74;100.00;97439.69;1030567;28;20044;-68
2022/11/12 01:13:30;;;;;;;33.00;11.52;;;;;;;2.77;100.00;97439.38;1027458;28;20285;-69
2022/11/12 01:14:03;;;;;;;50.78;12.25;;;;;;;2.76;100.00;97432.56;1034591;28;20034;-68
2022/11/12 01:14:34;;;;;;;32.85;12.23;;;;;;;2.77;100.00;97437.56;1031036;28;20033;-69
2022/11/12 01:15:05;;;;;;;43.90;13.77;;;;;;;2.81;100.00;97432.84;1031244;28;20309;-70
2022/11/12 01:15:40;;;;;;;34.42;11.55;;;;;;;2.70;100.00;97421.09;1034683;28;20281;-70
2022/11/12 01:16:12;;;;;;;30.83;11.35;;;;;;;2.69;100.00;97421.28;1030592;28;20278;-70
2022/11/12 01:16:43;;;;;;;46.72;13.00;;;;;;;2.74;100.00;97427.53;1026548;28;20397;-71
2022/11/12 01:17:13;;;;;;;23.35;10.88;;;;;;;2.74;100.00;97437.09;1030505;28;20269;-69
2022/11/12 01:17:44;;;;;;;42.70;12.13;;;;;;;2.67;100.00;97436.19;1030694;28;20198;-70
2022/11/12 01:18:14;;;;;;;47.40;12.73;;;;;;;2.70;100.00;97430.66;1030334;28;20061;-68
2022/11/12 01:18:45;;;;;;;45.90;13.93;;;;;;;2.73;100.00;97436.31;1026861;28;20027;-69
2022/11/12 01:19:15;;;;;;;37.13;11.20;;;;;;;2.76;100.00;97430.78;1026567;28;20393;-69
2022/11/12 01:19:46;;;;;;;44.67;13.02;;;;;;;2.73;100.00;97423.34;1022051;29;20031;-69
2022/11/12 01:20:16;;;;;;;28.75;12.25;;;;;;;2.77;100.00;97432.38;1026523;28;20035;-71
2022/11/12 01:20:46;;;;;;;43.88;12.35;;;;;;;2.75;100.00;97428.34;1029079;28;20544;-70
2022/11/12 01:21:17;;;;;;;73.95;14.93;;;;;;;2.78;100.00;97426.25;1034719;28;20034;-71
2022/11/12 01:21:47;;;;;;;52.90;13.38;;;;;;;2.78;100.00;97423.66;1038957;28;20040;-70
2022/11/12 01:22:18;;;;;;;43.70;11.82;;;;;;;2.70;100.00;97428.06;1038232;28;20037;-69
2022/11/12 01:22:48;;;;;;;48.63;12.30;;;;;;;2.66;100.00;97429.41;1038852;28;20025;-69
2022/11/12 01:23:19;;;;;;;33.58;11.68;;;;;;;2.61;100.00;97427.28;1041769;28;20074;-70
2022/11/12 01:23:49;;;;;;;50.00;13.52;;;;;;;2.60;100.00;97412.72;1037906;28;20045;-72
2022/11/12 01:24:20;;;;;;;42.40;12.05;;;;;;;2.67;100.00;97420.63;1030607;28;20037;-69
2022/11/12 01:24:50;;;;;;;53.53;12.10;;;;;;;2.62;100.00;97421.16;1024744;28;20037;-69
2022/11/12 01:25:20;;;;;;;59.42;12.35;;;;;;;2.58;100.00;97418.09;1026708;28;20078;-69
2022/11/12 01:25:51;;;;;;;43.28;12.35;;;;;;;2.52;100.00;97412.78;1028835;28;20090;-68
2022/11/12 01:26:21;;;;;;;58.15;12.88;;;;;;;2.52;100.00;97421.38;1026611;28;20033;-71
2022/11/12 01:26:52;;;;;;;41.63;11.40;;;;;;;2.51;100.00;97416.34;1026801;28;20026;-71
2022/11/12 01:27:22;;;;;;;47.05;12.15;;;;;;;2.51;100.00;97414.53;1030595;28;20023;-69
2022/11/12 01:27:53;;;;;;;45.05;12.68;;;;;;;2.54;100.00;97414.22;1030969;28;20023;-70
2022/11/12 01:28:23;;;;;;;64.50;13.15;;;;;;;2.53;100.00;97416.97;1026644;28;20444;-69
2022/11/12 01:28:54;;;;;;;59.22;12.68;;;;;;;2.49;100.00;97420.91;1026886;28;20217;-68
2022/11/12 01:29:24;;;;;;;39.63;11.52;;;;;;;2.47;100.00;97418.47;1022817;29;20438;-70
2022/11/12 01:29:55;;;;;;;52.60;12.43;;;;;;;2.48;100.00;97414.09;1023028;28;20032;-69
2022/11/12 01:30:25;;;;;;;38.13;12.25;;;;;;;2.45;100.00;97417.00;1030919;28;20022;-71
2022/11/12 01:30:56;;;;;;;54.42;13.48;;;;;;;2.48;100.00;97422.69;1028970;28;20059;-68
2022/11/12 01:31:28;;;;;;;63.35;14.85;;;;;;;2.44;100.00;97413.63;1035822;28;20439;-70
2022/11/12 01:31:58;;;;;;;60.30;15.63;;;;;;;2.45;100.00;97410.06;1034807;28;20029;-69
2022/11/12 01:32:29;;;;;;;61.33;13.18;;;;;;;2.48;100.00;97414.09;1030185;28;20273;-69
2022/11/12 01:32:59;;;;;;;58.20;13.77;;;;;;;2.44;100.00;97413.63;1026670;28;20027;-70
2022/11/12 01:33:30;;;;;;;76.68;14.68;;;;;;;2.49;100.00;97419.09;1030926;28;20030;-69
2022/11/12 01:34:05;;;;;;;79.30;15.77;;;;;;;2.46;100.00;97416.84;1026906;28;20833;-70
2022/11/12 01:34:35;;;;;;;51.78;14.85;;;;;;;2.53;100.00;97424.75;1027389;28;20028;-68
2022/11/12 01:35:06;;;;;;;35.45;12.00;;;;;;;2.58;100.00;97422.44;1026273;28;20752;-69
2022/11/12 01:35:37;;;;;;;90.28;15.75;;;;;;;2.57;100.00;97419.06;1023700;28;20032;-68
2022/11/12 01:36:07;;;;;;;37.97;12.32;;;;;;;2.62;100.00;97422.94;1027763;28;20026;-70
2022/11/12 01:36:38;;;;;;;66.35;14.52;;;;;;;2.57;100.00;97411.28;1037612;28;20084;-70
2022/11/12 01:37:08;;;;;;;72.07;15.73;;;;;;;2.59;100.00;97424.09;1030593;28;20035;-69
2022/11/12 01:37:39;;;;;;;37.75;10.63;;;;;;;2.50;100.00;97404.38;1026788;28;20643;-68
2022/11/12 01:38:09;;;;;;;49.83;13.57;;;;;;;2.55;100.00;97421.03;1022759;29;20030;-71
2022/11/12 01:38:40;;;;;;;41.30;11.98;;;;;;;2.56;100.00;97407.09;1018837;29;20035;-70
2022/11/12 01:39:11;;;;;;;44.17;12.40;;;;;;;2.66;100.00;97419.84;1022661;29;20109;-70
2022/11/12 01:39:41;;;;;;;27.42;11.15;;;;;;;2.66;100.00;97414.66;1022625;28;20270;-67
2022/11/12 01:40:12;;;;;;;32.22;11.65;;;;;;;2.69;100.00;97414.31;1023004;28;20031;-71
2022/11/12 01:40:42;;;;;;;53.65;12.52;;;;;;;2.67;100.00;97415.44;1022875;28;20038;-71
2022/11/12 01:41:15;;;;;;;48.78;11.07;;;;;;;2.64;100.00;97415.78;1030695;28;20073;-70
2022/11/12 01:41:45;;;;;;;39.50;10.65;;;;;;;2.63;100.00;97409.81;1029647;28;20053;-70
2022/11/12 01:42:15;;;;;;;31.63;11.60;;;;;;;2.60;100.00;97410.13;1030870;28;20274;-69
2022/11/12 01:42:51;;;;;;;32.38;10.25;;;;;;;2.57;100.00;97416.47;1034351;28;20025;-70
2022/11/12 01:43:21;;;;;;;38.22;11.65;;;;;;;2.51;100.00;97399.00;1020657;28;20030;-70
2022/11/12 01:44:07;;;;;;;33.17;9.95;;;;;;;2.54;100.00;97414.22;1018994;29;20662;-69
2022/11/12 01:44:40;;;;;;;31.55;10.63;;;;;;;2.52;100.00;97408.41;1018802;29;20023;-70
2022/11/12 01:45:14;;;;;;;31.73;10.38;;;;;;;2.48;100.00;97409.72;1023344;28;20761;-70
2022/11/12 01:45:45;;;;;;;32.45;9.95;;;;;;;2.50;100.00;97402.59;1025825;28;20269;-70
2022/11/12 01:46:21;;;;;;;47.67;11.02;;;;;;;2.48;100.00;97407.13;1023741;28;20307;-70
2022/11/12 01:47:11;;;;;;;58.05;11.35;;;;;;;2.53;100.00;97404.84;1026572;28;20756;-69
2022/11/12 01:47:42;;;;;;;54.70;11.65;;;;;;;2.47;100.00;97404.69;1026616;28;20286;-70
2022/11/12 01:48:33;;;;;;;36.85;10.82;;;;;;;2.45;100.00;97407.47;1022749;28;20497;-71
2022/11/12 01:49:05;;;;;;;32.85;9.93;;;;;;;2.42;100.00;97405.22;1022874;29;20031;-70
2022/11/12 01:49:38;;;;;;;30.38;11.00;;;;;;;2.43;100.00;97404.25;1014811;29;20790;-70
2022/11/12 01:50:24;;;;;;;38.55;11.48;;;;;;;2.41;100.00;97408.78;1025537;28;20278;-68
2022/11/12 01:50:55;;;;;;;31.05;10.25;;;;;;;2.41;100.00;97406.19;1025468;28;20323;-70
2022/11/12 01:51:29;;;;;;;42.50;11.63;;;;;;;2.34;100.00;97400.88;1029291;28;20618;-70
2022/11/12 01:52:07;;;;;;;45.08;11.38;;;;;;;2.29;100.00;97412.72;1029829;28;20527;-70
2022/11/12 01:52:41;;;;;;;24.33;9.60;;;;;;;2.29;100.00;97394.59;1026142;28;20258;-70
2022/11/12 01:53:12;;;;;;;30.80;11.40;;;;;;;2.34;100.00;97405.25;1022834;29;20279;-69
2022/11/12 01:53:44;;;;;;;44.85;11.35;;;;;;;2.33;100.00;97398.47;1026457;28;20266;-70
2022/11/12 01:54:15;;;;;;;49.25;12.15;;;;;;;2.36;100.00;97398.13;1026814;28;20467;-71
2022/11/12 01:54:48;;;;;;;41.83;12.52;;;;;;;2.39;100.00;97394.41;1027001;28;20269;-71
2022/11/12 01:55:21;;;;;;;40.65;10.32;;;;;;;2.36;100.00;97398.13;1022611;29;20570;-70
2022/11/12 01:55:51;;;;;;;43.17;11.65;;;;;;;2.31;100.00;97392.63;1015532;29;20335;-69
2022/11/12 01:56:22;;;;;;;36.50;10.93;;;;;;;2.30;100.00;97393.63;1026822;28;20340;-69
2022/11/12 01:56:52;;;;;;;47.25;12.45;;;;;;;2.33;100.00;97395.88;1034710;28;20105;-70
2022/11/12 01:57:28;;;;;;;46.92;11.25;;;;;;;2.33;100.00;97399.25;1030798;28;20023;-69
2022/11/12 01:58:04;;;;;;;38.17;12.20;;;;;;;2.31;100.00;97395.22;1030634;28;20056;-70
2022/11/12 01:58:34;;;;;;;29.23;10.70;;;;;;;2.36;100.00;97395.53;1028036;28;20284;-70
2022/11/12 01:59:09;;;;;;;32.70;10.45;;;;;;;2.40;100.00;97399.41;1026748;28;20304;-69
2022/11/12 01:59:42;;;;;;;43.67;12.40;;;;;;;2.38;100.00;97390.16;1024023;28;20054;-70
2022/11/12 02:00:15;;;;;;;35.22;11.57;;;;;;;2.44;100.00;97395.47;1024819;28;20286;-69
2022/11/12 02:00:45;;;;;;;68.47;13.70;;;;;;;2.43;100.00;97393.88;1025515;28;20794;-70
2022/11/12 02:01:16;;;;;;;34.03;11.23;;;;;;;2.43;100.00;97387.91;1019461;29;20286;-69
2022/11/12 02:01:46;;;;;;;32.15;11.20;;;;;;;2.36;100.00;97387.75;1026981;28;20019;-70
2022/11/12 02:02:17;;;;;;;32.17;11.23;;;;;;;2.42;100.00;97387.09;1030070;28;20027;-70
2022/11/12 02:02:56;;;;;;;46.35;12.57;;;;;;;2.41;100.00;97385.47;1034730;28;20053;-69
2022/11/12 02:03:27;;;;;;;32.45;10.82;;;;;;;2.43;100.00;97387.91;1026714;28;20027;-69
2022/11/12 02:03:57;;;;;;;38.60;11.45;;;;;;;2.30;100.00;97378.06;1026347;28;20285;-69
2022/11/12 02:04:28;;;;;;;35.53;11.88;;;;;;;2.35;100.00;97381.78;1022916;29;20020;-68
2022/11/12 02:04:58;;;;;;;33.03;12.55;;;;;;;2.40;100.00;97383.84;1023071;28;20030;-70
2022/11/12 02:05:29;;;;;;;46.85;12.90;;;;;;;2.44;100.00;97379.13;1028902;28;20465;-68
2022/11/12 02:06:02;;;;;;;39.33;13.70;;;;;;;2.45;100.00;97381.56;1026596;28;20110;-69
2022/11/12 02:06:32;;;;;;;22.17;10.27;;;;;;;2.48;100.00;97386.41;1022658;29;20400;-70
2022/11/12 02:07:03;;;;;;;23.45;10.80;;;;;;;2.49;100.00;97375.06;1019757;28;20271;-68
2022/11/12 02:07:34;;;;;;;42.72;13.13;;;;;;;2.51;100.00;97380.06;1022730;29;20027;-68
2022/11/12 02:08:06;;;;;;;30.08;12.48;;;;;;;2.41;100.00;97364.72;1018715;29;20396;-68
2022/11/12 02:08:36;;;;;;;75.25;13.85;;;;;;;2.33;100.00;97357.03;1018754;29;20255;-68
2022/11/12 02:09:07;;;;;;;32.70;11.35;;;;;;;2.53;100.00;97378.13;1026684;28;20266;-71
2022/11/12 02:09:37;;;;;;;43.55;12.00;;;;;;;2.55;100.00;97383.94;1030744;28;20054;-69
2022/11/12 02:10:08;;;;;;;34.70;11.65;;;;;;;2.54;100.00;97383.13;1026661;28;20528;-70
2022/11/12 02:10:39;;;;;;;28.88;11.32;;;;;;;2.46;100.00;97378.00;1029300;28;20315;-69
2022/11/12 02:11:13;;;;;;;30.23;12.07;;;;;;;2.56;100.00;97395.91;1026776;28;20270;-69
2022/11/12 02:11:44;;;;;;;29.70;11.20;;;;;;;2.55;100.00;97391.72;1030698;28;20022;-71
2022/11/12 02:13:56;;;;;;;29.83;11.60;;;;;;;2.55;100.00;97389.13;1030406;28;20273;-70
2022/11/12 02:13:59;;;;;;;29.58;11.57;;;;;;;2.59;100.00;97390.41;1034476;28;20087;-69
2022/11/12 02:14:30;;;;;;;33.58;11.43;;;;;;;2.56;100.00;97388.94;1032436;28;20348;-69
2022/11/12 02:15:00;;;;;;;33.83;12.27;;;;;;;2.56;100.00;97388.94;1030630;28;20269;-69
2022/11/12 02:15:31;;;;;;;27.80;11.35;;;;;;;2.59;100.00;97386.03;1022003;29;20034;-69
2022/11/12 02:16:02;;;;;;;22.75;10.95;;;;;;;2.58;100.00;97388.75;1019390;29;20059;-70
2022/11/12 02:16:34;;;;;;;36.10;13.60;;;;;;;2.57;100.00;97389.75;1018933;29;20560;-70
2022/11/12 02:17:04;;;;;;;32.58;11.50;;;;;;;2.57;100.00;97384.56;1027009;28;21101;-70
2022/11/12 02:17:34;;;;;;;28.10;11.10;;;;;;;2.56;100.00;97381.19;1026291;28;20269;-69
2022/11/12 02:18:05;;;;;;;49.22;12.27;;;;;;;2.56;100.00;97388.94;1026953;28;20026;-70
2022/11/12 02:18:36;;;;;;;29.38;11.82;;;;;;;2.56;100.00;97386.34;1026595;28;20027;-70
2022/11/12 02:19:08;;;;;;;40.45;12.48;;;;;;;2.52;100.00;97379.91;1029127;28;20078;-70
2022/11/12 02:19:38;;;;;;;35.88;11.80;;;;;;;2.51;100.00;97382.66;1034739;28;20528;-68
2022/11/12 02:20:10;;;;;;;24.17;10.57;;;;;;;2.51;100.00;97383.47;1034674;28;20276;-69
2022/11/12 02:20:40;;;;;;;43.40;14.10;;;;;;;2.48;100.00;97383.81;1026072;28;20026;-67
2022/11/12 02:21:10;;;;;;;27.33;11.27;;;;;;;2.52;100.00;97387.69;1023076;28;20274;-70
2022/11/12 02:21:41;;;;;;;25.00;10.40;;;;;;;2.56;100.00;97385.56;1026701;28;20023;-68
2022/11/12 02:22:11;;;;;;;25.63;11.20;;;;;;;2.49;100.00;97374.25;1026289;28;20041;-67
2022/11/12 02:22:42;;;;;;;29.42;10.98;;;;;;;2.57;100.00;97385.38;1022268;29;20141;-69
2022/11/12 02:23:13;;;;;;;26.95;9.98;;;;;;;2.58;100.00;97387.00;1022915;29;20090;-70
2022/11/12 02:23:43;;;;;;;25.90;10.95;;;;;;;2.57;100.00;97381.97;1023099;28;20030;-68
2022/11/12 02:24:13;;;;;;;30.17;11.80;;;;;;;2.60;100.00;97390.22;1030641;28;20539;-68
2022/11/12 02:24:44;;;;;;;47.28;13.75;;;;;;;2.61;100.00;97380.66;1038688;28;20835;-67